Toone, Tennessee
Current Conditions -  °F | °C
As of 9:53 AM on Monday 26 Jan 2015 (Local Time) from KMKL Reporting Station
Overcast Overcast  
Wind Chill: 30°   Ceiling: 2100
Heat Index: 37°   Visibility: 10mi
Dew Point: 27°   Wind: 10mph
Humidity: 67%   Direction: 330°NNW
Pressure: 30.09"   Gusts: NA
Location:  35.35°N, 88.95°W
Report Text: KMKL 261553Z 33009KT 10SM OVC021 03/M03 A3009 RMK AO2 SLP190 T00281028
Loading
Personal Weather Stations






























Interactive Weather Map New forecast layout! Learn more

10-Day Weather Forecast

Advertisements
Track Severe Weather on mobile